sensor_id;sensor_type;location;lat;lon;timestamp;pressure;altitude;pressure_sealevel;temperature;humidity
63535;BME280;55128;50.230;18.944;2023-07-31T00:04:58;98086.06;;;17.08;92.96
63535;BME280;55128;50.230;18.944;2023-07-31T00:09:58;98085.34;;;16.95;94.25
63535;BME280;55128;50.230;18.944;2023-07-31T00:14:59;98083.13;;;17.00;93.67
63535;BME280;55128;50.230;18.944;2023-07-31T00:19:59;98088.50;;;16.89;94.05
63535;BME280;55128;50.230;18.944;2023-07-31T00:25:00;98082.88;;;16.81;93.89
63535;BME280;55128;50.230;18.944;2023-07-31T00:30:00;98094.84;;;16.77;93.81
63535;BME280;55128;50.230;18.944;2023-07-31T00:35:00;98086.06;;;16.75;93.79
63535;BME280;55128;50.230;18.944;2023-07-31T00:40:01;98094.47;;;16.81;93.58
63535;BME280;55128;50.230;18.944;2023-07-31T00:45:04;98097.88;;;16.72;94.17
63535;BME280;55128;50.230;18.944;2023-07-31T00:50:05;98101.03;;;16.77;94.27
63535;BME280;55128;50.230;18.944;2023-07-31T00:55:06;98101.06;;;16.66;94.25
63535;BME280;55128;50.230;18.944;2023-07-31T01:00:07;98110.53;;;16.59;94.60
63535;BME280;55128;50.230;18.944;2023-07-31T01:05:08;98118.34;;;16.62;94.17
63535;BME280;55128;50.230;18.944;2023-07-31T01:10:15;98108.75;;;16.59;94.74
63535;BME280;55128;50.230;18.944;2023-07-31T01:15:17;98110.44;;;16.60;94.89
63535;BME280;55128;50.230;18.944;2023-07-31T01:20:21;98120.44;;;16.69;94.44
63535;BME280;55128;50.230;18.944;2023-07-31T01:25:47;98114.94;;;16.60;95.11
63535;BME280;55128;50.230;18.944;2023-07-31T01:30:48;98123.59;;;16.52;95.38
63535;BME280;55128;50.230;18.944;2023-07-31T01:35:49;98128.47;;;16.58;95.08
63535;BME280;55128;50.230;18.944;2023-07-31T01:40:53;98123.81;;;16.60;94.29
63535;BME280;55128;50.230;18.944;2023-07-31T01:45:53;98137.47;;;16.57;93.84
63535;BME280;55128;50.230;18.944;2023-07-31T01:50:54;98135.38;;;16.49;93.94
63535;BME280;55128;50.230;18.944;2023-07-31T01:55:54;98137.13;;;16.62;93.58
63535;BME280;55128;50.230;18.944;2023-07-31T02:00:54;98137.59;;;16.44;94.15
63535;BME280;55128;50.230;18.944;2023-07-31T02:05:55;98138.22;;;16.48;93.65
63535;BME280;55128;50.230;18.944;2023-07-31T02:10:56;98140.13;;;16.46;93.12
63535;BME280;55128;50.230;18.944;2023-07-31T02:15:57;98140.13;;;16.46;93.63
63535;BME280;55128;50.230;18.944;2023-07-31T02:20:57;98137.72;;;16.54;93.78
63535;BME280;55128;50.230;18.944;2023-07-31T02:31:54;98148.19;;;16.68;93.70
63535;BME280;55128;50.230;18.944;2023-07-31T02:36:54;98152.47;;;16.71;92.56
63535;BME280;55128;50.230;18.944;2023-07-31T02:41:55;98125.91;;;16.79;91.59
63535;BME280;55128;50.230;18.944;2023-07-31T02:46:55;98153.19;;;16.62;93.56
63535;BME280;55128;50.230;18.944;2023-07-31T02:51:55;98167.38;;;16.86;92.05
63535;BME280;55128;50.230;18.944;2023-07-31T02:56:56;98178.44;;;16.82;92.25
63535;BME280;55128;50.230;18.944;2023-07-31T03:01:56;98181.25;;;16.80;92.21
63535;BME280;55128;50.230;18.944;2023-07-31T03:06:57;98181.75;;;16.97;91.06
63535;BME280;55128;50.230;18.944;2023-07-31T03:11:57;98186.16;;;16.86;90.78
63535;BME280;55128;50.230;18.944;2023-07-31T03:16:57;98185.03;;;17.00;89.62
63535;BME280;55128;50.230;18.944;2023-07-31T03:21:58;98186.84;;;16.77;90.71
63535;BME280;55128;50.230;18.944;2023-07-31T03:26:59;98183.97;;;16.92;89.11
63535;BME280;55128;50.230;18.944;2023-07-31T03:31:59;98184.31;;;16.87;89.17
63535;BME280;55128;50.230;18.944;2023-07-31T03:36:59;98184.06;;;17.01;88.23
63535;BME280;55128;50.230;18.944;2023-07-31T03:42:00;98198.31;;;16.90;87.85
63535;BME280;55128;50.230;18.944;2023-07-31T03:47:00;98201.28;;;16.99;88.05
63535;BME280;55128;50.230;18.944;2023-07-31T03:52:01;98206.03;;;17.06;87.63
63535;BME280;55128;50.230;18.944;2023-07-31T03:57:01;98200.78;;;17.27;87.49
63535;BME280;55128;50.230;18.944;2023-07-31T04:02:01;98209.41;;;17.42;86.64
63535;BME280;55128;50.230;18.944;2023-07-31T04:07:02;98199.91;;;17.49;87.21
63535;BME280;55128;50.230;18.944;2023-07-31T04:12:02;98210.25;;;17.54;86.08
63535;BME280;55128;50.230;18.944;2023-07-31T04:17:03;98200.63;;;17.52;86.50
63535;BME280;55128;50.230;18.944;2023-07-31T04:22:03;98195.31;;;17.73;85.70
63535;BME280;55128;50.230;18.944;2023-07-31T04:27:04;98201.03;;;17.91;84.82
63535;BME280;55128;50.230;18.944;2023-07-31T04:32:04;98202.00;;;17.90;84.76
63535;BME280;55128;50.230;18.944;2023-07-31T04:37:05;98206.50;;;18.00;84.07
63535;BME280;55128;50.230;18.944;2023-07-31T04:42:05;98219.38;;;18.18;82.75
63535;BME280;55128;50.230;18.944;2023-07-31T04:47:05;98216.22;;;18.34;81.67
63535;BME280;55128;50.230;18.944;2023-07-31T04:52:06;98216.22;;;18.34;81.95
63535;BME280;55128;50.230;18.944;2023-07-31T04:57:06;98226.88;;;18.56;82.04
63535;BME280;55128;50.230;18.944;2023-07-31T05:02:08;98224.00;;;18.90;82.82
63535;BME280;55128;50.230;18.944;2023-07-31T05:07:08;98221.94;;;19.34;78.86
63535;BME280;55128;50.230;18.944;2023-07-31T05:12:09;98217.16;;;19.88;77.36
63535;BME280;55128;50.230;18.944;2023-07-31T05:17:11;98225.84;;;20.60;72.61
63535;BME280;55128;50.230;18.944;2023-07-31T05:22:11;98227.94;;;20.56;70.99
63535;BME280;55128;50.230;18.944;2023-07-31T05:27:11;98233.34;;;20.56;70.68
63535;BME280;55128;50.230;18.944;2023-07-31T05:32:12;98233.47;;;20.45;70.90
63535;BME280;55128;50.230;18.944;2023-07-31T05:37:13;98241.44;;;20.76;69.75
63535;BME280;55128;50.230;18.944;2023-07-31T05:42:14;98235.53;;;22.03;69.00
63535;BME280;55128;50.230;18.944;2023-07-31T05:47:14;98236.47;;;23.44;58.92
63535;BME280;55128;50.230;18.944;2023-07-31T05:52:14;98232.94;;;22.91;59.54
63535;BME280;55128;50.230;18.944;2023-07-31T05:57:15;98245.94;;;24.41;57.44
63535;BME280;55128;50.230;18.944;2023-07-31T06:02:15;98246.81;;;25.08;54.05
63535;BME280;55128;50.230;18.944;2023-07-31T06:07:15;98247.50;;;24.77;52.42
63535;BME280;55128;50.230;18.944;2023-07-31T06:12:16;98257.00;;;25.14;52.52
63535;BME280;55128;50.230;18.944;2023-07-31T06:17:18;98257.16;;;26.16;50.36
63535;BME280;55128;50.230;18.944;2023-07-31T06:22:19;98254.38;;;26.79;48.38
63535;BME280;55128;50.230;18.944;2023-07-31T06:27:19;98254.06;;;28.37;42.87
63535;BME280;55128;50.230;18.944;2023-07-31T06:32:19;98251.03;;;28.47;41.01
63535;BME280;55128;50.230;18.944;2023-07-31T06:37:20;98255.72;;;29.53;39.62
63535;BME280;55128;50.230;18.944;2023-07-31T06:42:20;98258.28;;;30.64;36.82
63535;BME280;55128;50.230;18.944;2023-07-31T06:47:21;98245.78;;;31.68;34.85
63535;BME280;55128;50.230;18.944;2023-07-31T06:52:21;98258.53;;;32.14;32.58
63535;BME280;55128;50.230;18.944;2023-07-31T06:57:21;98255.88;;;31.88;33.82
63535;BME280;55128;50.230;18.944;2023-07-31T07:02:22;98260.88;;;32.49;32.27
63535;BME280;55128;50.230;18.944;2023-07-31T07:07:22;98258.75;;;32.51;32.60
63535;BME280;55128;50.230;18.944;2023-07-31T07:12:22;98260.41;;;34.64;28.60
63535;BME280;55128;50.230;18.944;2023-07-31T07:17:23;98268.91;;;33.58;30.25
63535;BME280;55128;50.230;18.944;2023-07-31T07:22:24;98261.16;;;33.48;29.64
63535;BME280;55128;50.230;18.944;2023-07-31T07:27:25;98259.94;;;34.67;27.94
63535;BME280;55128;50.230;18.944;2023-07-31T07:32:26;98261.97;;;34.30;27.90
63535;BME280;55128;50.230;18.944;2023-07-31T07:37:26;98259.59;;;34.15;28.15
63535;BME280;55128;50.230;18.944;2023-07-31T07:42:26;98257.63;;;32.66;29.88
63535;BME280;55128;50.230;18.944;2023-07-31T07:47:27;98262.59;;;32.82;30.17
63535;BME280;55128;50.230;18.944;2023-07-31T07:52:27;98260.94;;;33.00;30.79
63535;BME280;55128;50.230;18.944;2023-07-31T07:57:28;98259.72;;;32.96;31.18
63535;BME280;55128;50.230;18.944;2023-07-31T08:02:28;98254.78;;;32.47;29.95
63535;BME280;55128;50.230;18.944;2023-07-31T08:07:28;98262.91;;;33.68;29.51
63535;BME280;55128;50.230;18.944;2023-07-31T08:12:29;98259.63;;;32.84;29.06
63535;BME280;55128;50.230;18.944;2023-07-31T08:17:30;98265.44;;;30.65;32.20
63535;BME280;55128;50.230;18.944;2023-07-31T08:22:31;98270.53;;;34.21;28.91
63535;BME280;55128;50.230;18.944;2023-07-31T08:27:31;98268.66;;;34.03;26.94
63535;BME280;55128;50.230;18.944;2023-07-31T08:32:31;98262.63;;;35.28;25.49
63535;BME280;55128;50.230;18.944;2023-07-31T08:37:32;98279.31;;;36.32;24.62
63535;BME280;55128;50.230;18.944;2023-07-31T08:42:32;98270.50;;;36.35;23.91
63535;BME280;55128;50.230;18.944;2023-07-31T08:47:32;98274.59;;;38.41;22.45
63535;BME280;55128;50.230;18.944;2023-07-31T08:52:33;98276.38;;;37.64;21.63
63535;BME280;55128;50.230;18.944;2023-07-31T08:57:34;98272.91;;;34.18;26.19
63535;BME280;55128;50.230;18.944;2023-07-31T09:02:54;98260.78;;;37.24;23.64
63535;BME280;55128;50.230;18.944;2023-07-31T09:07:56;98270.16;;;37.96;22.33
63535;BME280;55128;50.230;18.944;2023-07-31T09:12:57;98265.38;;;38.14;20.44
63535;BME280;55128;50.230;18.944;2023-07-31T09:17:59;98265.19;;;40.25;18.49
63535;BME280;55128;50.230;18.944;2023-07-31T09:23:13;98271.03;;;39.70;18.56
63535;BME280;55128;50.230;18.944;2023-07-31T09:28:14;98252.00;;;37.66;19.98
63535;BME280;55128;50.230;18.944;2023-07-31T09:33:14;98243.50;;;35.61;22.24
63535;BME280;55128;50.230;18.944;2023-07-31T09:38:15;98243.91;;;32.21;26.74
63535;BME280;55128;50.230;18.944;2023-07-31T09:43:20;98242.63;;;33.81;25.38
63535;BME280;55128;50.230;18.944;2023-07-31T09:48:23;98230.44;;;31.54;27.48
63535;BME280;55128;50.230;18.944;2023-07-31T09:53:29;98229.16;;;31.36;27.82
63535;BME280;55128;50.230;18.944;2023-07-31T09:58:34;98220.56;;;29.84;30.80
63535;BME280;55128;50.230;18.944;2023-07-31T10:03:36;98212.88;;;31.62;28.61
63535;BME280;55128;50.230;18.944;2023-07-31T10:08:38;98225.78;;;29.79;29.96
63535;BME280;55128;50.230;18.944;2023-07-31T10:13:41;98217.34;;;29.74;31.56
63535;BME280;55128;50.230;18.944;2023-07-31T10:18:42;98210.06;;;29.60;31.18
63535;BME280;55128;50.230;18.944;2023-07-31T10:23:44;98200.72;;;29.13;31.49
63535;BME280;55128;50.230;18.944;2023-07-31T10:28:46;98200.34;;;28.59;32.22
63535;BME280;55128;50.230;18.944;2023-07-31T10:33:47;98184.06;;;28.79;31.51
63535;BME280;55128;50.230;18.944;2023-07-31T10:38:49;98177.72;;;29.29;30.62
63535;BME280;55128;50.230;18.944;2023-07-31T10:43:54;98181.13;;;29.37;31.33
63535;BME280;55128;50.230;18.944;2023-07-31T10:49:01;98182.44;;;28.85;30.25
63535;BME280;55128;50.230;18.944;2023-07-31T10:54:15;98176.28;;;27.90;32.42
63535;BME280;55128;50.230;18.944;2023-07-31T10:59:16;98167.84;;;28.49;31.44
63535;BME280;55128;50.230;18.944;2023-07-31T11:04:25;98156.47;;;28.46;31.01
63535;BME280;55128;50.230;18.944;2023-07-31T11:09:30;98165.28;;;28.98;31.16
63535;BME280;55128;50.230;18.944;2023-07-31T11:14:31;98154.09;;;28.36;31.60
63535;BME280;55128;50.230;18.944;2023-07-31T11:19:31;98156.88;;;28.43;32.20
63535;BME280;55128;50.230;18.944;2023-07-31T11:24:31;98149.91;;;28.19;31.87
63535;BME280;55128;50.230;18.944;2023-07-31T11:29:32;98136.00;;;28.35;32.38
63535;BME280;55128;50.230;18.944;2023-07-31T11:34:32;98146.16;;;27.83;33.11
63535;BME280;55128;50.230;18.944;2023-07-31T11:39:32;98142.31;;;28.14;32.29
63535;BME280;55128;50.230;18.944;2023-07-31T11:44:39;98136.31;;;28.04;31.97
63535;BME280;55128;50.230;18.944;2023-07-31T11:49:41;98140.91;;;27.45;33.03
63535;BME280;55128;50.230;18.944;2023-07-31T11:54:41;98123.88;;;27.43;33.43
63535;BME280;55128;50.230;18.944;2023-07-31T11:59:42;98127.50;;;27.65;34.28
63535;BME280;55128;50.230;18.944;2023-07-31T12:04:43;98119.63;;;27.56;35.13
63535;BME280;55128;50.230;18.944;2023-07-31T12:09:54;98114.81;;;27.94;33.10
63535;BME280;55128;50.230;18.944;2023-07-31T12:14:54;98115.69;;;27.80;33.17
63535;BME280;55128;50.230;18.944;2023-07-31T12:19:55;98109.38;;;27.79;33.89
63535;BME280;55128;50.230;18.944;2023-07-31T12:24:57;98098.88;;;27.76;34.63
63535;BME280;55128;50.230;18.944;2023-07-31T12:29:57;98097.34;;;28.10;34.00
63535;BME280;55128;50.230;18.944;2023-07-31T12:35:00;98086.25;;;27.75;34.30
63535;BME280;55128;50.230;18.944;2023-07-31T12:40:01;98077.47;;;28.44;34.39
63535;BME280;55128;50.230;18.944;2023-07-31T12:45:04;98079.16;;;27.96;34.20
63535;BME280;55128;50.230;18.944;2023-07-31T12:50:05;98076.25;;;27.97;34.94
63535;BME280;55128;50.230;18.944;2023-07-31T12:55:06;98064.53;;;28.53;33.51
63535;BME280;55128;50.230;18.944;2023-07-31T13:00:07;98066.88;;;28.91;32.87
63535;BME280;55128;50.230;18.944;2023-07-31T13:05:08;98053.34;;;28.83;32.61
63535;BME280;55128;50.230;18.944;2023-07-31T13:10:09;98050.09;;;28.09;32.65
63535;BME280;55128;50.230;18.944;2023-07-31T13:15:09;98047.06;;;28.82;33.23
63535;BME280;55128;50.230;18.944;2023-07-31T13:20:10;98043.16;;;29.05;31.27
63535;BME280;55128;50.230;18.944;2023-07-31T13:25:11;98038.09;;;28.60;32.74
63535;BME280;55128;50.230;18.944;2023-07-31T13:30:11;98043.16;;;28.07;33.54
63535;BME280;55128;50.230;18.944;2023-07-31T13:35:11;98043.09;;;27.42;33.26
63535;BME280;55128;50.230;18.944;2023-07-31T13:40:12;98028.63;;;27.05;34.68
63535;BME280;55128;50.230;18.944;2023-07-31T13:45:12;98020.94;;;26.94;35.38
63535;BME280;55128;50.230;18.944;2023-07-31T13:50:12;98028.84;;;27.62;35.47
63535;BME280;55128;50.230;18.944;2023-07-31T13:55:13;98021.91;;;27.81;35.36
63535;BME280;55128;50.230;18.944;2023-07-31T14:00:13;98021.47;;;27.99;34.95
63535;BME280;55128;50.230;18.944;2023-07-31T14:05:14;98018.00;;;27.68;33.77
63535;BME280;55128;50.230;18.944;2023-07-31T14:10:14;98016.69;;;27.64;35.12
63535;BME280;55128;50.230;18.944;2023-07-31T14:15:15;98020.13;;;27.51;34.50
63535;BME280;55128;50.230;18.944;2023-07-31T14:20:15;98027.00;;;27.47;33.56
63535;BME280;55128;50.230;18.944;2023-07-31T14:25:15;98020.81;;;27.02;34.91
63535;BME280;55128;50.230;18.944;2023-07-31T14:30:16;98020.16;;;26.41;35.30
63535;BME280;55128;50.230;18.944;2023-07-31T14:35:17;98024.38;;;26.28;36.30
63535;BME280;55128;50.230;18.944;2023-07-31T14:40:17;98018.56;;;25.93;36.95
63535;BME280;55128;50.230;18.944;2023-07-31T14:45:17;98023.44;;;25.75;37.73
63535;BME280;55128;50.230;18.944;2023-07-31T14:50:20;98009.28;;;25.65;38.10
63535;BME280;55128;50.230;18.944;2023-07-31T14:55:21;98019.59;;;26.30;38.61
63535;BME280;55128;50.230;18.944;2023-07-31T15:00:21;98007.00;;;26.59;38.63
63535;BME280;55128;50.230;18.944;2023-07-31T15:05:22;98007.13;;;26.95;37.04
63535;BME280;55128;50.230;18.944;2023-07-31T15:10:22;97993.50;;;26.95;37.40
63535;BME280;55128;50.230;18.944;2023-07-31T15:15:22;97997.72;;;26.53;38.34
63535;BME280;55128;50.230;18.944;2023-07-31T15:20:24;97993.38;;;26.29;38.43
63535;BME280;55128;50.230;18.944;2023-07-31T15:25:24;97996.00;;;26.08;39.66
63535;BME280;55128;50.230;18.944;2023-07-31T15:30:24;97982.22;;;26.54;38.53
63535;BME280;55128;50.230;18.944;2023-07-31T15:35:25;97986.56;;;26.33;38.78
63535;BME280;55128;50.230;18.944;2023-07-31T15:40:25;97979.78;;;26.44;39.08
63535;BME280;55128;50.230;18.944;2023-07-31T15:45:25;97983.91;;;26.25;39.20
63535;BME280;55128;50.230;18.944;2023-07-31T15:50:26;97976.47;;;26.04;39.67
63535;BME280;55128;50.230;18.944;2023-07-31T15:55:26;97965.41;;;26.06;39.37
63535;BME280;55128;50.230;18.944;2023-07-31T16:00:26;97971.50;;;26.08;39.96
63535;BME280;55128;50.230;18.944;2023-07-31T16:05:27;97965.69;;;25.96;39.79
63535;BME280;55128;50.230;18.944;2023-07-31T16:10:27;97950.63;;;25.85;40.52
63535;BME280;55128;50.230;18.944;2023-07-31T16:15:28;97956.91;;;25.48;40.81
63535;BME280;55128;50.230;18.944;2023-07-31T16:20:29;97958.53;;;25.34;40.83
63535;BME280;55128;50.230;18.944;2023-07-31T16:25:29;97953.69;;;25.44;41.26
63535;BME280;55128;50.230;18.944;2023-07-31T16:30:30;97949.19;;;25.74;41.32
63535;BME280;55128;50.230;18.944;2023-07-31T16:35:30;97941.94;;;26.05;39.90
63535;BME280;55128;50.230;18.944;2023-07-31T16:40:30;97932.09;;;25.66;40.00
63535;BME280;55128;50.230;18.944;2023-07-31T16:45:31;97939.19;;;25.52;39.79
63535;BME280;55128;50.230;18.944;2023-07-31T16:50:31;97936.16;;;25.47;39.96
63535;BME280;55128;50.230;18.944;2023-07-31T16:55:32;97937.03;;;25.24;40.41
63535;BME280;55128;50.230;18.944;2023-07-31T17:00:34;97931.16;;;25.12;40.06
63535;BME280;55128;50.230;18.944;2023-07-31T17:05:34;97933.13;;;24.95;40.94
63535;BME280;55128;50.230;18.944;2023-07-31T17:10:36;97933.03;;;24.80;41.21
63535;BME280;55128;50.230;18.944;2023-07-31T17:15:36;97928.00;;;24.69;42.62
63535;BME280;55128;50.230;18.944;2023-07-31T17:20:36;97937.31;;;24.75;42.75
63535;BME280;55128;50.230;18.944;2023-07-31T17:25:38;97933.69;;;24.43;43.42
63535;BME280;55128;50.230;18.944;2023-07-31T17:30:38;97940.59;;;24.14;45.71
63535;BME280;55128;50.230;18.944;2023-07-31T17:35:40;97930.63;;;23.74;47.55
63535;BME280;55128;50.230;18.944;2023-07-31T17:40:41;97926.59;;;23.45;49.04
63535;BME280;55128;50.230;18.944;2023-07-31T17:45:41;97929.41;;;22.94;50.74
63535;BME280;55128;50.230;18.944;2023-07-31T17:50:41;97932.06;;;22.69;53.05
63535;BME280;55128;50.230;18.944;2023-07-31T17:55:42;97933.41;;;22.82;53.59
63535;BME280;55128;50.230;18.944;2023-07-31T18:00:42;97940.25;;;22.43;55.61
63535;BME280;55128;50.230;18.944;2023-07-31T18:05:43;97933.06;;;22.00;56.69
63535;BME280;55128;50.230;18.944;2023-07-31T18:10:46;97938.47;;;22.00;56.37
63535;BME280;55128;50.230;18.944;2023-07-31T18:15:47;97938.78;;;21.70;56.26
63535;BME280;55128;50.230;18.944;2023-07-31T18:20:47;97946.38;;;21.49;57.84
63535;BME280;55128;50.230;18.944;2023-07-31T18:25:48;97955.50;;;21.12;59.78
63535;BME280;55128;50.230;18.944;2023-07-31T18:30:48;97936.19;;;20.89;60.01
63535;BME280;55128;50.230;18.944;2023-07-31T18:35:48;97932.69;;;20.61;61.10
63535;BME280;55128;50.230;18.944;2023-07-31T18:40:49;97931.47;;;20.45;62.15
63535;BME280;55128;50.230;18.944;2023-07-31T18:45:49;97931.53;;;20.35;61.37
63535;BME280;55128;50.230;18.944;2023-07-31T18:50:50;97932.91;;;20.12;63.03
63535;BME280;55128;50.230;18.944;2023-07-31T18:55:51;97933.88;;;19.73;64.85
63535;BME280;55128;50.230;18.944;2023-07-31T19:00:52;97944.66;;;19.54;65.22
63535;BME280;55128;50.230;18.944;2023-07-31T19:06:00;97961.97;;;19.41;65.69
63535;BME280;55128;50.230;18.944;2023-07-31T19:11:02;97963.81;;;19.41;67.36
63535;BME280;55128;50.230;18.944;2023-07-31T19:16:03;97959.44;;;19.20;68.26
63535;BME280;55128;50.230;18.944;2023-07-31T19:21:03;97960.81;;;18.86;69.82
63535;BME280;55128;50.230;18.944;2023-07-31T19:26:04;97955.03;;;18.90;70.58
63535;BME280;55128;50.230;18.944;2023-07-31T19:31:04;97953.53;;;18.67;70.74
63535;BME280;55128;50.230;18.944;2023-07-31T19:36:04;97942.88;;;18.55;70.21
63535;BME280;55128;50.230;18.944;2023-07-31T19:41:05;97933.53;;;18.50;70.91
63535;BME280;55128;50.230;18.944;2023-07-31T19:46:05;97932.63;;;18.30;72.24
63535;BME280;55128;50.230;18.944;2023-07-31T19:51:05;97924.94;;;18.15;72.85
63535;BME280;55128;50.230;18.944;2023-07-31T19:56:06;97914.41;;;17.93;73.71
63535;BME280;55128;50.230;18.944;2023-07-31T20:01:06;97917.84;;;17.83;74.50
63535;BME280;55128;50.230;18.944;2023-07-31T20:06:07;97928.00;;;17.80;74.55
63535;BME280;55128;50.230;18.944;2023-07-31T20:11:07;97917.22;;;17.70;75.13
63535;BME280;55128;50.230;18.944;2023-07-31T20:16:09;97913.63;;;17.60;75.58
63535;BME280;55128;50.230;18.944;2023-07-31T20:21:10;97919.66;;;17.52;75.75
63535;BME280;55128;50.230;18.944;2023-07-31T20:26:10;97907.56;;;17.37;76.55
63535;BME280;55128;50.230;18.944;2023-07-31T20:31:11;97907.34;;;17.28;76.70
63535;BME280;55128;50.230;18.944;2023-07-31T20:36:11;97906.25;;;17.31;76.58
63535;BME280;55128;50.230;18.944;2023-07-31T20:41:11;97889.69;;;17.26;76.85
63535;BME280;55128;50.230;18.944;2023-07-31T20:46:12;97890.78;;;17.02;78.01
63535;BME280;55128;50.230;18.944;2023-07-31T20:51:12;97881.22;;;17.09;77.33
63535;BME280;55128;50.230;18.944;2023-07-31T20:56:12;97874.28;;;16.86;78.63
63535;BME280;55128;50.230;18.944;2023-07-31T21:01:13;97866.69;;;16.91;78.71
63535;BME280;55128;50.230;18.944;2023-07-31T21:06:13;97865.25;;;16.87;79.84
63535;BME280;55128;50.230;18.944;2023-07-31T21:11:16;97857.44;;;16.95;79.41
63535;BME280;55128;50.230;18.944;2023-07-31T21:16:16;97841.66;;;16.69;79.44
63535;BME280;55128;50.230;18.944;2023-07-31T21:21:17;97831.13;;;16.57;80.54
63535;BME280;55128;50.230;18.944;2023-07-31T21:26:17;97837.47;;;16.56;80.64
63535;BME280;55128;50.230;18.944;2023-07-31T21:31:18;97828.38;;;16.47;80.62
63535;BME280;55128;50.230;18.944;2023-07-31T21:36:18;97824.47;;;16.40;81.20
63535;BME280;55128;50.230;18.944;2023-07-31T21:41:18;97827.88;;;16.42;81.01
63535;BME280;55128;50.230;18.944;2023-07-31T21:46:19;97831.59;;;16.29;80.89
63535;BME280;55128;50.230;18.944;2023-07-31T21:51:19;97814.56;;;16.19;82.19
63535;BME280;55128;50.230;18.944;2023-07-31T21:56:20;97808.25;;;16.20;81.92
63535;BME280;55128;50.230;18.944;2023-07-31T22:01:20;97808.38;;;16.19;82.58
63535;BME280;55128;50.230;18.944;2023-07-31T22:06:20;97799.81;;;16.25;82.36
63535;BME280;55128;50.230;18.944;2023-07-31T22:11:21;97797.13;;;16.57;81.19
63535;BME280;55128;50.230;18.944;2023-07-31T22:16:22;97792.13;;;16.64;80.60
63535;BME280;55128;50.230;18.944;2023-07-31T22:21:22;97792.00;;;16.65;80.45
63535;BME280;55128;50.230;18.944;2023-07-31T22:26:23;97798.53;;;16.73;80.13
63535;BME280;55128;50.230;18.944;2023-07-31T22:31:23;97797.75;;;16.82;79.90
63535;BME280;55128;50.230;18.944;2023-07-31T22:36:23;97794.13;;;16.83;80.24
63535;BME280;55128;50.230;18.944;2023-07-31T22:41:24;97788.22;;;16.89;80.06
63535;BME280;55128;50.230;18.944;2023-07-31T22:46:24;97780.78;;;16.93;80.07
63535;BME280;55128;50.230;18.944;2023-07-31T22:51:25;97777.28;;;17.02;79.46
63535;BME280;55128;50.230;18.944;2023-07-31T22:56:25;97775.53;;;17.12;78.99
63535;BME280;55128;50.230;18.944;2023-07-31T23:01:25;97777.75;;;17.38;78.05
63535;BME280;55128;50.230;18.944;2023-07-31T23:06:27;97777.75;;;17.38;76.98
63535;BME280;55128;50.230;18.944;2023-07-31T23:11:27;97771.63;;;17.57;76.91
63535;BME280;55128;50.230;18.944;2023-07-31T23:16:28;97769.13;;;17.65;76.06
63535;BME280;55128;50.230;18.944;2023-07-31T23:21:28;97767.03;;;17.78;76.12
63535;BME280;55128;50.230;18.944;2023-07-31T23:26:28;97759.09;;;17.67;76.35
63535;BME280;55128;50.230;18.944;2023-07-31T23:31:29;97748.22;;;17.68;75.46
63535;BME280;55128;50.230;18.944;2023-07-31T23:36:29;97732.81;;;17.61;74.92
63535;BME280;55128;50.230;18.944;2023-07-31T23:41:29;97743.25;;;17.64;75.51
63535;BME280;55128;50.230;18.944;2023-07-31T23:46:30;97732.69;;;17.72;74.73
63535;BME280;55128;50.230;18.944;2023-07-31T23:51:30;97719.69;;;17.77;74.22
63535;BME280;55128;50.230;18.944;2023-07-31T23:56:31;97718.13;;;17.65;74.30
